Terminal Aerodrome Forecast
Issued by NWS

Home | Current Version | Previous Version | Text Only | Print | Product List | Glossary On
Versions: 1 2 3 4 5 6 7 8 9 10 11 12 13 14 15 16 17 18 19 20 21 22
000
FTUS44 KLZK 211700
TAFLIT
TAF
KLIT 211730Z 2118/2218 34010KT P6SM SCT015 BKN025
     FM212000 03010KT P6SM SCT020 BKN035
     FM220000 06005KT P6SM SCT150
     FM220700 05005KT P6SM SCT015 SCT150=

USA.gov is the U.S. government's official web portal to all federal, state and local government web resources and services.